createdAt,value
2022-10-05T00:01:31.944Z,5.38
2022-10-05T00:04:16.197Z,5.72
2022-10-05T00:06:51.983Z,7.47
2022-10-05T00:09:22.320Z,5.95
2022-10-05T00:11:52.086Z,5.32
2022-10-05T00:14:26.926Z,6.07
2022-10-05T00:16:57.149Z,6.00
2022-10-05T00:19:38.859Z,6.68
2022-10-05T00:22:10.379Z,6.47
2022-10-05T00:24:38.948Z,6.28
2022-10-05T00:27:21.377Z,5.70
2022-10-05T00:29:52.266Z,5.57
2022-10-05T00:32:20.954Z,6.18
2022-10-05T00:34:49.932Z,6.20
2022-10-05T00:37:19.137Z,5.32
2022-10-05T00:39:47.924Z,5.50
2022-10-05T00:42:41.123Z,5.32
2022-10-05T00:45:32.669Z,5.18
2022-10-05T00:48:33.395Z,38.58
2022-10-05T00:51:16.542Z,6.63
2022-10-05T00:53:54.659Z,5.43
2022-10-05T00:56:50.067Z,5.47
2022-10-05T00:59:37.732Z,6.03
2022-10-05T01:02:24.839Z,5.57
2022-10-05T01:05:04.160Z,4.70
2022-10-05T01:08:07.736Z,5.10
2022-10-05T01:10:58.089Z,4.30
2022-10-05T01:13:59.193Z,4.47
2022-10-05T01:16:58.958Z,4.32
2022-10-05T01:19:39.869Z,4.32
2022-10-05T01:22:24.617Z,4.07
2022-10-05T01:24:56.400Z,4.43
2022-10-05T01:27:50.352Z,4.28
2022-10-05T01:30:22.350Z,4.10
2022-10-05T01:33:13.334Z,4.45
2022-10-05T01:36:15.898Z,4.30
2022-10-05T01:39:03.483Z,8.43
2022-10-05T01:42:22.899Z,4.53
2022-10-05T01:45:12.755Z,4.13
2022-10-05T01:47:52.658Z,4.35
2022-10-05T01:50:26.536Z,5.30
2022-10-05T01:53:15.768Z,5.80
2022-10-05T01:55:55.888Z,5.85
2022-10-05T01:58:51.138Z,5.63
2022-10-05T02:01:28.314Z,5.88
2022-10-05T02:04:56.520Z,5.85
2022-10-05T02:07:29.662Z,5.93
2022-10-05T02:10:23.197Z,7.05
2022-10-05T02:13:15.331Z,5.80
2022-10-05T02:15:53.985Z,6.38
2022-10-05T02:18:28.128Z,6.05
2022-10-05T02:20:59.422Z,6.17
2022-10-05T02:23:34.613Z,6.13
2022-10-05T02:26:05.607Z,6.47
2022-10-05T02:28:41.278Z,6.68
2022-10-05T02:31:44.103Z,6.40
2022-10-05T02:34:22.207Z,6.05
2022-10-05T02:37:08.581Z,6.15
2022-10-05T02:40:00.043Z,6.40
2022-10-05T02:42:37.338Z,6.60
2022-10-05T02:45:28.759Z,6.07
2022-10-05T02:48:00.201Z,6.70
2022-10-05T02:50:47.689Z,6.50
2022-10-05T02:53:27.399Z,6.78
2022-10-05T02:56:11.762Z,7.43
2022-10-05T02:58:51.784Z,7.40
2022-10-05T03:01:51.770Z,7.75
2022-10-05T03:04:23.765Z,7.95
2022-10-05T03:07:04.243Z,8.07
2022-10-05T03:09:48.759Z,8.35
2022-10-05T03:12:29.341Z,10.57
2022-10-05T03:15:24.122Z,8.57
2022-10-05T03:17:55.448Z,8.63
2022-10-05T03:20:52.688Z,8.82
2022-10-05T03:24:00.160Z,8.98
2022-10-05T03:26:50.823Z,8.93
2022-10-05T03:29:43.835Z,8.70
2022-10-05T03:32:27.746Z,9.07
2022-10-05T03:35:19.096Z,9.50
2022-10-05T03:38:09.423Z,9.90
2022-10-05T03:40:48.055Z,9.80
2022-10-05T03:43:45.609Z,9.02
2022-10-05T03:46:33.645Z,9.07
2022-10-05T03:49:21.153Z,9.38
2022-10-05T03:52:15.969Z,8.43
2022-10-05T03:54:53.744Z,9.23
2022-10-05T03:57:29.502Z,8.48
2022-10-05T04:00:15.591Z,7.70
2022-10-05T04:03:10.705Z,7.65
2022-10-05T04:05:51.119Z,7.28
2022-10-05T04:08:43.042Z,7.90
2022-10-05T04:11:45.405Z,7.32
2022-10-05T04:14:29.487Z,7.10
2022-10-05T04:17:06.882Z,7.55
2022-10-05T04:20:20.794Z,11.98
2022-10-05T04:23:15.733Z,6.47
2022-10-05T04:25:52.750Z,18.58
2022-10-05T04:28:33.797Z,6.15
2022-10-05T04:31:12.725Z,6.22
2022-10-05T04:33:44.626Z,5.90
2022-10-05T04:36:37.266Z,7.43
2022-10-05T04:39:12.339Z,6.28
2022-10-05T04:41:56.918Z,6.55
2022-10-05T04:44:46.741Z,6.68
2022-10-05T04:47:57.376Z,6.13
2022-10-05T04:51:09.876Z,5.70
2022-10-05T04:53:55.509Z,5.65
2022-10-05T04:56:35.722Z,5.28
2022-10-05T04:59:30.093Z,5.22
2022-10-05T05:02:14.637Z,5.38
2022-10-05T05:05:20.572Z,5.22
2022-10-05T05:08:01.601Z,5.45
2022-10-05T05:10:48.512Z,5.40
2022-10-05T05:13:51.198Z,5.90
2022-10-05T05:16:35.718Z,6.10
2022-10-05T05:19:28.848Z,6.18
2022-10-05T05:22:26.838Z,5.85
2022-10-05T05:25:18.030Z,6.30
2022-10-05T05:27:59.239Z,6.25
2022-10-05T05:31:03.799Z,6.10
2022-10-05T05:33:47.503Z,6.45
2022-10-05T05:37:03.143Z,5.38
2022-10-05T05:39:40.131Z,5.60
2022-10-05T05:42:30.496Z,5.88
2022-10-05T05:45:05.374Z,5.88
2022-10-05T05:47:38.390Z,6.45
2022-10-05T05:50:25.036Z,6.38
2022-10-05T05:53:04.357Z,5.85
2022-10-05T05:55:42.125Z,5.80
2022-10-05T05:58:47.659Z,6.40
2022-10-05T06:01:53.639Z,6.40
2022-10-05T06:04:28.587Z,6.75
2022-10-05T06:07:02.119Z,6.57
2022-10-05T06:09:41.340Z,7.32
2022-10-05T06:12:33.332Z,7.18
2022-10-05T06:15:13.272Z,7.55
2022-10-05T06:17:53.491Z,7.15
2022-10-05T06:20:36.544Z,7.50
2022-10-05T06:23:15.096Z,8.23
2022-10-05T06:26:16.509Z,8.15
2022-10-05T06:28:52.894Z,8.25
2022-10-05T06:31:57.884Z,8.40
2022-10-05T06:34:49.258Z,8.50
2022-10-05T06:37:39.696Z,8.30
2022-10-05T06:40:28.643Z,9.05
2022-10-05T06:43:19.378Z,8.35
2022-10-05T06:46:24.338Z,8.82
2022-10-05T06:49:21.407Z,9.05
2022-10-05T06:52:39.891Z,8.90
2022-10-05T06:55:27.270Z,9.00
2022-10-05T06:58:08.627Z,8.80
2022-10-05T07:00:57.167Z,8.75
2022-10-05T07:03:56.932Z,8.52
2022-10-05T07:07:15.423Z,9.32
2022-10-05T07:09:53.857Z,8.80
2022-10-05T07:12:43.661Z,9.23
2022-10-05T07:15:37.734Z,9.00
2022-10-05T07:18:28.416Z,8.70
2022-10-05T07:21:18.321Z,8.32
2022-10-05T07:24:09.287Z,8.30
2022-10-05T07:26:46.475Z,8.07
2022-10-05T07:29:30.170Z,7.57
2022-10-05T07:32:23.509Z,7.80
2022-10-05T07:35:35.259Z,7.43
2022-10-05T07:38:24.021Z,11.02
2022-10-05T07:40:59.980Z,9.25
2022-10-05T07:46:58.875Z,7.20
2022-10-05T07:49:31.732Z,7.28
2022-10-05T07:52:05.808Z,8.00
2022-10-05T07:55:05.510Z,7.63
2022-10-05T07:57:53.863Z,8.80
2022-10-05T08:00:25.940Z,7.43
2022-10-05T08:03:07.128Z,7.83
2022-10-05T08:05:43.775Z,7.75
2022-10-05T08:08:14.318Z,6.63
2022-10-05T08:11:12.582Z,6.53
2022-10-05T08:13:55.411Z,7.10
2022-10-05T08:16:31.705Z,7.30
2022-10-05T08:19:26.032Z,8.18
2022-10-05T08:22:05.163Z,13.30
2022-10-05T08:25:02.927Z,6.97
2022-10-05T08:27:40.691Z,6.53
2022-10-05T08:30:15.092Z,6.03
2022-10-05T08:33:21.476Z,6.22
2022-10-05T08:36:11.361Z,6.50
2022-10-05T08:38:41.456Z,6.15
2022-10-05T08:42:06.025Z,6.10
2022-10-05T08:44:59.238Z,6.07
2022-10-05T08:47:28.920Z,6.50
2022-10-05T08:50:26.703Z,5.82
2022-10-05T08:53:13.971Z,5.78
2022-10-05T08:56:21.494Z,6.05
2022-10-05T08:59:06.805Z,5.55
2022-10-05T09:01:35.419Z,6.00
2022-10-05T09:04:22.011Z,5.57
2022-10-05T09:07:24.354Z,8.75
2022-10-05T09:10:13.819Z,5.53
2022-10-05T09:12:51.375Z,5.72
2022-10-05T09:15:38.100Z,5.65
2022-10-05T09:18:22.303Z,5.40
2022-10-05T09:21:03.466Z,5.73
2022-10-05T09:23:37.973Z,5.40
2022-10-05T09:26:44.838Z,5.60
2022-10-05T09:29:34.856Z,4.90
2022-10-05T09:32:21.004Z,5.32
2022-10-05T09:35:01.811Z,4.93
2022-10-05T09:37:51.605Z,4.78
2022-10-05T09:40:36.941Z,5.32
2022-10-05T09:43:29.195Z,5.00
2022-10-05T09:46:12.990Z,5.32
2022-10-05T09:49:00.385Z,4.70
2022-10-05T09:51:50.491Z,4.55
2022-10-05T09:54:37.731Z,4.70
2022-10-05T09:57:30.198Z,4.07
2022-10-05T10:03:06.171Z,5.70
2022-10-05T10:05:47.716Z,4.55
2022-10-05T10:08:37.987Z,4.13
2022-10-05T10:11:27.277Z,4.00
2022-10-05T10:14:14.150Z,4.35
2022-10-05T10:16:51.356Z,4.45
2022-10-05T10:19:28.964Z,4.22
2022-10-05T10:22:14.803Z,3.90
2022-10-05T10:25:09.726Z,4.32
2022-10-05T10:28:03.309Z,7.10
2022-10-05T10:30:47.066Z,7.05
2022-10-05T10:33:47.300Z,6.88
2022-10-05T10:36:24.540Z,4.90
2022-10-05T10:39:21.700Z,5.20
2022-10-05T10:42:01.709Z,5.28
2022-10-05T10:45:08.978Z,4.45
2022-10-05T10:47:47.717Z,6.00
2022-10-05T10:51:06.568Z,9.55
2022-10-05T10:53:58.166Z,15.88
2022-10-05T10:57:06.804Z,5.97
2022-10-05T10:59:53.827Z,5.18
2022-10-05T11:02:30.461Z,4.07
2022-10-05T11:05:32.001Z,5.07
2022-10-05T11:08:37.538Z,5.03
2022-10-05T11:11:30.335Z,3.95
2022-10-05T11:14:17.359Z,8.38
2022-10-05T11:17:19.133Z,10.55
2022-10-05T11:20:32.581Z,8.10
2022-10-05T11:23:16.408Z,10.02
2022-10-05T11:26:11.270Z,5.57
2022-10-05T11:28:42.873Z,5.63
2022-10-05T11:31:50.245Z,6.30
2022-10-05T11:34:57.130Z,5.13
2022-10-05T11:37:46.306Z,6.13
2022-10-05T11:40:45.879Z,6.93
2022-10-05T11:43:44.926Z,15.93
2022-10-05T11:46:25.944Z,46.97
2022-10-05T11:49:03.413Z,102.85
2022-10-05T11:51:50.720Z,92.93
2022-10-05T11:54:32.538Z,81.78
2022-10-05T11:57:10.298Z,40.13
2022-10-05T12:00:00.087Z,23.90
2022-10-05T12:02:43.585Z,11.88
2022-10-05T12:05:28.106Z,9.25
2022-10-05T12:08:15.535Z,6.53
2022-10-05T12:10:58.924Z,6.90
2022-10-05T12:14:07.631Z,6.07
2022-10-05T12:16:56.752Z,6.63
2022-10-05T12:19:32.415Z,16.38
2022-10-05T12:22:16.140Z,13.77
2022-10-05T12:24:47.830Z,30.88
2022-10-05T12:27:23.925Z,19.05
2022-10-05T12:30:20.956Z,8.05
2022-10-05T12:33:02.055Z,12.90
2022-10-05T12:35:47.876Z,8.75
2022-10-05T12:38:47.357Z,10.30
2022-10-05T12:41:16.083Z,10.48
2022-10-05T12:44:07.792Z,10.75
2022-10-05T12:46:42.293Z,8.98
2022-10-05T12:49:14.233Z,9.60
2022-10-05T12:52:00.886Z,26.40
2022-10-05T12:54:56.165Z,11.50
2022-10-05T12:57:45.902Z,12.45
2022-10-05T13:00:22.937Z,12.52
2022-10-05T13:03:13.536Z,14.02
2022-10-05T13:05:48.193Z,16.08
2022-10-05T13:08:33.313Z,38.33
2022-10-05T13:13:36.067Z,56.60
2022-10-05T13:16:21.307Z,22.77
2022-10-05T13:19:08.199Z,20.02
2022-10-05T13:22:13.316Z,20.98
2022-10-05T13:25:09.313Z,21.35
2022-10-05T13:27:43.438Z,22.67
2022-10-05T13:30:18.927Z,23.13
2022-10-05T13:33:16.067Z,27.48
2022-10-05T13:36:14.615Z,23.58
2022-10-05T13:38:43.472Z,23.05
2022-10-05T13:41:18.828Z,24.10
2022-10-05T13:43:59.573Z,26.00
2022-10-05T13:46:52.988Z,25.10
2022-10-05T13:52:51.163Z,23.95
2022-10-05T13:55:47.038Z,23.20
2022-10-05T13:58:30.543Z,22.98
2022-10-05T14:01:23.794Z,22.33
2022-10-05T14:04:11.465Z,22.52
2022-10-05T14:06:40.187Z,23.08
2022-10-05T14:09:33.990Z,23.10
2022-10-05T14:12:05.062Z,22.20
2022-10-05T14:14:48.346Z,19.23
2022-10-05T14:17:39.847Z,17.05
2022-10-05T14:20:31.807Z,15.38
2022-10-05T14:23:12.060Z,14.55
2022-10-05T14:25:55.695Z,14.50
2022-10-05T14:28:33.481Z,15.60
2022-10-05T14:31:13.116Z,22.05
2022-10-05T14:33:42.286Z,16.08
2022-10-05T14:36:25.025Z,15.50
2022-10-05T14:39:01.147Z,15.75
2022-10-05T14:41:35.243Z,16.63
2022-10-05T14:44:06.740Z,16.23
2022-10-05T14:46:36.746Z,16.27
2022-10-05T14:49:27.215Z,16.15
2022-10-05T14:51:57.167Z,16.42
2022-10-05T14:54:34.389Z,27.92
2022-10-05T14:57:25.865Z,18.38
2022-10-05T15:00:09.263Z,15.10
2022-10-05T15:02:45.741Z,19.15
2022-10-05T15:05:17.314Z,16.23
2022-10-05T15:07:50.046Z,48.42
2022-10-05T15:10:37.267Z,54.58
2022-10-05T15:13:29.152Z,42.90
2022-10-05T15:16:20.389Z,26.00
2022-10-05T15:18:52.394Z,29.75
2022-10-05T15:21:52.993Z,27.85
2022-10-05T15:24:26.075Z,24.30
2022-10-05T15:27:01.237Z,25.45
2022-10-05T15:29:47.403Z,18.17
2022-10-05T15:32:42.336Z,19.20
2022-10-05T15:35:25.838Z,15.98
2022-10-05T15:38:23.773Z,14.35
2022-10-05T15:41:21.022Z,14.48
2022-10-05T15:43:52.410Z,13.00
2022-10-05T15:46:36.362Z,12.52
2022-10-05T15:49:13.595Z,11.68
2022-10-05T15:51:42.332Z,11.95
2022-10-05T15:54:45.084Z,10.90
2022-10-05T15:57:51.342Z,24.23
2022-10-05T16:00:24.184Z,11.52
2022-10-05T16:02:55.566Z,11.77
2022-10-05T16:05:59.870Z,11.75
2022-10-05T16:09:02.124Z,11.00
2022-10-05T16:11:44.722Z,10.57
2022-10-05T16:14:38.882Z,11.32
2022-10-05T16:17:07.638Z,10.90
2022-10-05T16:19:57.175Z,10.15
2022-10-05T16:23:05.511Z,9.93
2022-10-05T16:26:16.055Z,9.55
2022-10-05T16:29:08.661Z,9.45
2022-10-05T16:32:07.713Z,9.27
2022-10-05T16:35:09.551Z,8.80
2022-10-05T16:38:01.288Z,12.60
2022-10-05T16:40:57.278Z,9.60
2022-10-05T16:43:45.663Z,9.02
2022-10-05T16:46:42.236Z,9.30
2022-10-05T16:49:20.075Z,10.57
2022-10-05T16:51:59.763Z,12.27
2022-10-05T16:54:47.850Z,11.88
2022-10-05T16:57:25.201Z,8.73
2022-10-05T17:00:05.658Z,7.55
2022-10-05T17:02:46.773Z,8.70
2022-10-05T17:05:56.139Z,10.05
2022-10-05T17:08:37.465Z,14.50
2022-10-05T17:11:17.147Z,7.25
2022-10-05T17:14:17.977Z,7.40
2022-10-05T17:16:55.373Z,7.20
2022-10-05T17:19:34.762Z,6.57
2022-10-05T17:22:31.502Z,7.28
2022-10-05T17:25:09.232Z,6.65
2022-10-05T17:27:57.997Z,6.57
2022-10-05T17:30:54.612Z,7.90
2022-10-05T17:33:25.522Z,6.78
2022-10-05T17:36:09.001Z,7.22
2022-10-05T17:38:50.520Z,11.10
2022-10-05T17:41:30.860Z,8.20
2022-10-05T17:44:19.962Z,6.88
2022-10-05T17:46:49.450Z,6.18
2022-10-05T17:49:40.503Z,6.30
2022-10-05T17:52:55.995Z,5.95
2022-10-05T17:55:37.104Z,6.00
2022-10-05T17:58:26.700Z,5.72
2022-10-05T18:01:07.713Z,5.95
2022-10-05T18:03:41.759Z,6.05
2022-10-05T18:06:32.612Z,6.35
2022-10-05T18:09:13.682Z,6.15
2022-10-05T18:11:45.202Z,6.10
2022-10-05T18:14:27.883Z,6.05
2022-10-05T18:17:13.221Z,5.97
2022-10-05T18:22:28.743Z,6.10
2022-10-05T18:25:36.622Z,6.40
2022-10-05T18:28:24.193Z,6.43
2022-10-05T18:31:11.528Z,22.80
2022-10-05T18:34:18.682Z,33.80
2022-10-05T18:37:01.531Z,6.50
2022-10-05T18:40:06.409Z,6.28
2022-10-05T18:42:50.700Z,6.20
2022-10-05T18:45:37.994Z,7.95
2022-10-05T18:48:40.116Z,5.53
2022-10-05T18:51:39.720Z,5.85
2022-10-05T18:54:30.724Z,5.32
2022-10-05T18:57:03.561Z,8.15
2022-10-05T18:59:54.276Z,6.47
2022-10-05T19:02:39.397Z,6.13
2022-10-05T19:08:36.518Z,6.40
2022-10-05T19:11:23.900Z,12.30
2022-10-05T19:14:31.579Z,7.05
2022-10-05T19:17:03.181Z,7.53
2022-10-05T19:19:46.989Z,7.07
2022-10-05T19:22:42.825Z,7.75
2022-10-05T19:25:40.281Z,8.05
2022-10-05T19:28:14.063Z,24.08
2022-10-05T19:30:53.582Z,8.27
2022-10-05T19:33:42.130Z,7.13
2022-10-05T19:36:32.745Z,9.38
2022-10-05T19:39:29.412Z,14.43
2022-10-05T19:42:18.388Z,7.78
2022-10-05T19:45:03.373Z,7.22
2022-10-05T19:47:43.608Z,7.57
2022-10-05T19:50:23.803Z,8.82
2022-10-05T19:53:04.764Z,7.82
2022-10-05T19:55:42.270Z,9.75
2022-10-05T19:58:26.047Z,8.20
2022-10-05T20:00:56.182Z,7.30
2022-10-05T20:03:28.429Z,8.10
2022-10-05T20:06:04.802Z,13.50
2022-10-05T20:08:42.650Z,8.57
2022-10-05T20:11:23.063Z,7.40
2022-10-05T20:13:55.633Z,7.28
2022-10-05T20:16:45.914Z,35.65
2022-10-05T20:19:50.482Z,7.90
2022-10-05T20:22:35.772Z,8.63
2022-10-05T20:27:59.192Z,7.78
2022-10-05T20:30:29.702Z,7.22
2022-10-05T20:33:02.321Z,10.18
2022-10-05T20:35:34.341Z,10.93
2022-10-05T20:38:03.062Z,8.30
2022-10-05T20:40:31.933Z,11.65
2022-10-05T20:43:00.450Z,6.93
2022-10-05T20:45:29.166Z,6.38
2022-10-05T20:47:57.712Z,6.07
2022-10-05T20:50:28.334Z,5.97
2022-10-05T20:52:58.283Z,5.20
2022-10-05T20:55:32.046Z,5.03
2022-10-05T20:58:01.064Z,8.18
2022-10-05T21:00:49.533Z,5.90
2022-10-05T21:03:19.359Z,6.10
2022-10-05T21:05:47.891Z,5.15
2022-10-05T21:08:16.606Z,105.70
2022-10-05T21:10:45.234Z,6.60
2022-10-05T21:13:13.858Z,10.13
2022-10-05T21:15:43.403Z,5.22
2022-10-05T21:18:12.141Z,8.25
2022-10-05T21:20:40.722Z,5.43
2022-10-05T21:23:09.120Z,5.35
2022-10-05T21:25:37.904Z,15.98
2022-10-05T21:28:07.252Z,6.18
2022-10-05T21:30:35.962Z,5.50
2022-10-05T21:33:04.346Z,5.30
2022-10-05T21:35:33.234Z,8.35
2022-10-05T21:38:01.700Z,12.15
2022-10-05T21:40:30.310Z,20.85
2022-10-05T21:42:58.949Z,15.10
2022-10-05T21:45:29.577Z,7.18
2022-10-05T21:47:58.749Z,6.85
2022-10-05T21:50:27.660Z,5.70
2022-10-05T21:52:56.143Z,5.53
2022-10-05T21:55:24.671Z,17.55
2022-10-05T21:57:53.300Z,9.85
2022-10-05T22:00:21.865Z,14.80
2022-10-05T22:02:50.480Z,8.07
2022-10-05T22:05:19.042Z,5.50
2022-10-05T22:07:47.541Z,5.38
2022-10-05T22:10:16.047Z,7.25
2022-10-05T22:12:47.144Z,5.38
2022-10-05T22:15:16.184Z,4.90
2022-10-05T22:17:46.672Z,6.20
2022-10-05T22:20:16.281Z,5.07
2022-10-05T22:22:44.821Z,7.10
2022-10-05T22:25:13.581Z,5.63
2022-10-05T22:27:43.775Z,19.05
2022-10-05T22:30:15.646Z,5.15
2022-10-05T22:32:45.021Z,9.68
2022-10-05T22:35:13.723Z,20.63
2022-10-05T22:37:42.421Z,6.20
2022-10-05T22:40:12.408Z,5.68
2022-10-05T22:42:41.487Z,5.78
2022-10-05T22:45:10.462Z,7.03
2022-10-05T22:47:38.824Z,6.45
2022-10-05T22:50:08.024Z,5.75
2022-10-05T22:52:36.733Z,6.60
2022-10-05T22:55:05.961Z,6.30
2022-10-05T22:57:41.703Z,6.18
2022-10-05T23:00:11.850Z,7.07
2022-10-05T23:02:42.428Z,5.88
2022-10-05T23:05:14.102Z,6.30
2022-10-05T23:07:45.252Z,7.38
2022-10-05T23:10:16.917Z,11.93
2022-10-05T23:12:46.004Z,6.63
2022-10-05T23:15:14.609Z,6.70
2022-10-05T23:17:42.971Z,6.78
2022-10-05T23:20:11.468Z,11.55
2022-10-05T23:22:40.478Z,7.25
2022-10-05T23:25:09.637Z,7.22
2022-10-05T23:27:39.740Z,6.40
2022-10-05T23:30:10.664Z,53.28
2022-10-05T23:32:41.806Z,7.07
2022-10-05T23:35:12.620Z,6.20
2022-10-05T23:37:43.483Z,7.30
2022-10-05T23:40:14.457Z,8.07
2022-10-05T23:42:43.184Z,6.35
2022-10-05T23:45:12.840Z,8.45
2022-10-05T23:47:41.991Z,6.55
2022-10-05T23:50:10.942Z,9.38
2022-10-05T23:52:39.397Z,6.28
2022-10-05T23:55:08.558Z,5.93
2022-10-05T23:57:37.307Z,5.53
